Time;durP1;ratioP1;P1;durP2;ratioP2;P2;SDS_P1;SDS_P2;PMS_P1;PMS_P2;Temp;Humidity;BMP_temperature;BMP_pressure;BME280_temperature;BME280_humidity;BME280_pressure;Samples;Min_cycle;Max_cycle;Signal;HPM_P1;HPM_P2
2022/08/27 00:00:44;;;;;;;3.28;2.45;;;21.70;99.90;;;;;;4933756;29;20177;-75
2022/08/27 00:03:10;;;;;;;3.30;2.30;;;21.70;99.90;;;;;;4971855;29;20205;-75
2022/08/27 00:05:39;;;;;;;4.40;2.70;;;21.70;99.90;;;;;;4963798;29;20236;-75
2022/08/27 00:08:11;;;;;;;3.28;2.42;;;21.70;99.90;;;;;;4937773;29;20185;-75
2022/08/27 00:10:37;;;;;;;4.30;3.20;;;21.70;99.90;;;;;;4951426;29;20182;-75
2022/08/27 00:13:05;;;;;;;3.75;3.05;;;21.70;99.90;;;;;;4936489;29;20194;-76
2022/08/27 00:15:32;;;;;;;4.35;3.88;;;21.70;99.90;;;;;;4937113;29;20233;-75
2022/08/27 00:18:02;;;;;;;6.15;3.70;;;21.60;99.90;;;;;;4955401;29;20213;-76
2022/08/27 00:20:33;;;;;;;5.03;4.50;;;21.60;99.90;;;;;;4953142;29;20182;-75
2022/08/27 00:23:01;;;;;;;4.13;3.72;;;21.60;99.90;;;;;;4950915;29;20225;-76
2022/08/27 00:25:30;;;;;;;4.68;3.92;;;21.50;99.90;;;;;;4936109;29;20269;-74
2022/08/27 00:27:55;;;;;;;4.57;3.58;;;21.50;99.90;;;;;;4952925;29;20238;-74
2022/08/27 00:30:24;;;;;;;4.35;3.40;;;21.50;99.90;;;;;;4946577;29;20181;-76
2022/08/27 00:32:50;;;;;;;3.28;3.03;;;21.50;99.90;;;;;;4959358;29;20198;-76
2022/08/27 00:35:17;;;;;;;3.25;2.95;;;21.50;99.90;;;;;;4950040;29;20222;-74
2022/08/27 00:37:43;;;;;;;4.28;3.60;;;21.50;99.90;;;;;;4943248;29;20336;-74
2022/08/27 00:40:13;;;;;;;4.10;3.40;;;21.40;99.90;;;;;;4936987;29;20206;-75
2022/08/27 00:42:44;;;;;;;3.72;3.28;;;21.40;99.90;;;;;;4954433;29;20210;-75
2022/08/27 00:45:14;;;;;;;2.90;2.53;;;21.40;99.90;;;;;;4956697;28;20209;-76
2022/08/27 00:47:47;;;;;;;3.25;2.95;;;21.50;99.90;;;;;;4954649;29;20330;-75
2022/08/27 00:50:19;;;;;;;3.47;3.17;;;21.40;99.90;;;;;;4935518;29;20186;-75
2022/08/27 00:52:45;;;;;;;3.67;3.38;;;21.50;99.90;;;;;;4951181;29;20201;-75
2022/08/27 00:55:17;;;;;;;4.18;3.78;;;21.40;99.90;;;;;;4936277;29;20206;-76
2022/08/27 00:57:49;;;;;;;3.15;2.83;;;21.40;99.90;;;;;;4934766;29;20202;-76
2022/08/27 01:00:17;;;;;;;3.78;3.47;;;21.40;99.90;;;;;;4951104;29;20205;-75
2022/08/27 01:02:45;;;;;;;3.58;2.90;;;21.40;99.90;;;;;;4951369;29;20193;-75
2022/08/27 01:05:15;;;;;;;3.70;3.40;;;21.40;99.90;;;;;;4933137;29;20178;-75
2022/08/27 01:07:46;;;;;;;4.45;3.40;;;21.30;99.90;;;;;;4933206;29;20198;-74
2022/08/27 01:10:18;;;;;;;3.25;2.97;;;21.30;99.90;;;;;;4933935;29;20162;-76
2022/08/27 01:12:45;;;;;;;3.45;3.15;;;21.30;99.90;;;;;;4934289;29;20180;-76
2022/08/27 01:15:16;;;;;;;3.60;3.25;;;21.30;99.90;;;;;;4950091;29;20237;-76
2022/08/27 01:17:43;;;;;;;3.15;2.85;;;21.30;99.90;;;;;;4949607;29;20192;-74
2022/08/27 01:20:16;;;;;;;5.63;3.70;;;21.30;99.90;;;;;;4934571;29;20219;-75
2022/08/27 01:23:21;;;;;;;3.88;3.47;;;21.30;99.90;;;;;;4930938;29;20202;-76
2022/08/27 01:25:47;;;;;;;3.95;3.35;;;21.30;99.90;;;;;;4911724;29;20198;-75
2022/08/27 01:28:13;;;;;;;4.18;3.40;;;21.20;99.90;;;;;;4927995;29;20182;-72
2022/08/27 01:30:40;;;;;;;3.95;3.50;;;21.20;99.90;;;;;;4945186;29;20182;-75
2022/08/27 01:33:15;;;;;;;3.58;3.28;;;21.20;99.90;;;;;;4942637;29;20250;-74
2022/08/27 01:35:43;;;;;;;4.38;3.70;;;21.20;99.90;;;;;;4922762;29;20194;-71
2022/08/27 01:38:10;;;;;;;5.05;4.55;;;21.10;99.90;;;;;;4928392;29;20322;-71
2022/08/27 01:40:40;;;;;;;4.40;4.00;;;21.20;99.90;;;;;;4934503;29;20197;-71
2022/08/27 01:43:06;;;;;;;4.30;3.90;;;21.10;99.90;;;;;;4917981;29;20259;-76
2022/08/27 01:45:39;;;;;;;5.20;4.53;;;21.10;99.90;;;;;;4943921;29;20184;-69
2022/08/27 01:48:08;;;;;;;5.70;5.07;;;21.10;99.90;;;;;;4928985;29;20299;-72
2022/08/27 01:50:39;;;;;;;6.13;5.30;;;21.00;99.90;;;;;;4926833;29;20201;-72
2022/08/27 01:53:17;;;;;;;7.43;6.30;;;21.00;99.90;;;;;;4931805;29;20245;-71
2022/08/27 01:55:46;;;;;;;6.75;5.93;;;21.00;99.90;;;;;;4916965;29;20185;-75
2022/08/27 01:58:14;;;;;;;8.40;5.90;;;21.00;99.90;;;;;;4936882;29;20205;-75
2022/08/27 02:00:43;;;;;;;9.52;6.15;;;20.90;99.90;;;;;;4926536;29;20190;-74
2022/08/27 02:03:12;;;;;;;7.93;6.80;;;20.90;99.90;;;;;;4921702;29;20207;-75
2022/08/27 02:05:42;;;;;;;7.30;6.35;;;20.90;99.90;;;;;;4935547;29;20177;-74
2022/08/27 02:08:08;;;;;;;10.93;8.20;;;20.90;99.90;;;;;;4927465;29;20170;-75
2022/08/27 02:10:38;;;;;;;9.85;8.45;;;20.90;99.90;;;;;;4927406;29;20333;-74
2022/08/27 02:13:05;;;;;;;8.00;7.00;;;20.80;99.90;;;;;;4942332;29;20186;-73
2022/08/27 02:15:38;;;;;;;9.25;7.90;;;20.80;99.90;;;;;;4944401;29;20254;-72
2022/08/27 02:18:05;;;;;;;9.02;8.13;;;20.80;99.90;;;;;;4941748;29;20186;-71
2022/08/27 02:20:31;;;;;;;7.70;7.00;;;20.80;99.90;;;;;;4942715;29;20190;-74
2022/08/27 02:22:57;;;;;;;8.77;7.70;;;20.80;99.90;;;;;;4942317;29;20213;-75
2022/08/27 02:25:23;;;;;;;8.40;7.00;;;20.70;99.90;;;;;;4947276;29;20213;-73
2022/08/27 02:27:49;;;;;;;6.72;6.03;;;20.70;99.90;;;;;;4927439;29;20184;-75
2022/08/27 02:30:20;;;;;;;6.88;6.22;;;20.70;99.90;;;;;;4940245;29;20226;-72
2022/08/27 02:32:46;;;;;;;8.70;7.03;;;20.70;99.90;;;;;;4945500;29;20193;-71
2022/08/27 02:35:17;;;;;;;7.60;6.65;;;20.60;99.90;;;;;;4911381;29;20225;-75
2022/08/27 02:37:44;;;;;;;7.13;6.22;;;20.60;99.90;;;;;;4925038;29;20210;-74
2022/08/27 02:40:11;;;;;;;8.15;7.07;;;20.60;99.90;;;;;;4924626;29;20214;-72
2022/08/27 02:42:40;;;;;;;9.38;8.38;;;20.60;99.90;;;;;;4925770;29;20198;-74
2022/08/27 02:45:08;;;;;;;11.35;9.93;;;20.60;99.90;;;;;;4929788;29;20173;-74
2022/08/27 02:47:36;;;;;;;13.95;11.55;;;20.60;99.90;;;;;;4942501;29;20204;-72
2022/08/27 02:50:06;;;;;;;15.57;13.02;;;20.60;99.90;;;;;;4926621;29;20194;-71
2022/08/27 02:52:32;;;;;;;13.30;11.75;;;20.60;99.90;;;;;;4921600;29;20217;-71
2022/08/27 02:55:00;;;;;;;14.55;12.55;;;20.50;99.90;;;;;;4942447;29;20186;-74
2022/08/27 02:57:26;;;;;;;16.63;13.32;;;20.50;99.90;;;;;;4942223;29;20186;-71
2022/08/27 02:59:52;;;;;;;17.08;13.85;;;20.50;99.90;;;;;;4941095;29;20257;-75
2022/08/27 03:02:21;;;;;;;14.98;12.75;;;20.50;99.90;;;;;;4939025;29;20230;-75
2022/08/27 03:04:48;;;;;;;13.82;10.90;;;20.50;99.90;;;;;;4924868;29;20174;-74
2022/08/27 03:07:14;;;;;;;14.85;12.45;;;20.50;99.90;;;;;;4940260;29;20178;-75
2022/08/27 03:09:42;;;;;;;17.83;13.77;;;20.50;99.90;;;;;;4924950;29;20234;-75
2022/08/27 03:12:10;;;;;;;14.07;12.52;;;20.50;99.90;;;;;;4941429;29;20190;-75
2022/08/27 03:14:39;;;;;;;15.65;12.80;;;20.50;99.90;;;;;;4925809;29;20233;-74
2022/08/27 03:19:51;;;;;;;14.93;12.48;;;20.40;99.90;;;;;;4927104;29;20212;-75
2022/08/27 03:22:17;;;;;;;18.48;14.50;;;20.40;99.90;;;;;;4941538;29;20213;-74
2022/08/27 03:24:42;;;;;;;14.75;12.60;;;20.40;99.90;;;;;;4930270;29;20264;-75
2022/08/27 03:27:10;;;;;;;15.10;13.00;;;20.40;99.90;;;;;;4944420;29;20211;-69
2022/08/27 03:29:36;;;;;;;15.63;13.82;;;20.40;99.90;;;;;;4949198;29;21825;-70
2022/08/27 03:32:05;;;;;;;15.98;12.88;;;20.40;99.90;;;;;;4940291;29;20190;-76
2022/08/27 03:34:32;;;;;;;15.90;13.95;;;20.40;99.90;;;;;;4918039;29;20187;-75
2022/08/27 03:37:00;;;;;;;17.20;14.55;;;20.50;99.90;;;;;;4924706;29;20481;-75
2022/08/27 03:39:28;;;;;;;19.27;14.13;;;20.50;99.90;;;;;;4944894;29;20182;-75
2022/08/27 03:41:58;;;;;;;19.63;15.90;;;20.50;99.90;;;;;;4932513;29;20181;-75
2022/08/27 03:44:27;;;;;;;20.02;16.52;;;20.50;99.90;;;;;;4927381;29;20198;-75
2022/08/27 03:46:55;;;;;;;18.00;14.50;;;20.50;99.90;;;;;;4933790;29;20178;-71
2022/08/27 03:49:21;;;;;;;21.00;16.38;;;20.40;99.90;;;;;;4945770;29;20218;-74
2022/08/27 03:51:54;;;;;;;19.40;15.35;;;20.40;99.90;;;;;;4928134;29;20296;-73
2022/08/27 03:54:20;;;;;;;24.40;17.55;;;20.40;99.90;;;;;;4926599;29;20181;-75
2022/08/27 03:56:46;;;;;;;22.42;17.70;;;20.40;99.90;;;;;;4931757;29;20189;-73
2022/08/27 03:59:16;;;;;;;21.17;15.50;;;20.40;99.90;;;;;;4927834;29;20209;-73
2022/08/27 04:01:47;;;;;;;19.27;15.68;;;20.40;99.90;;;;;;4944075;29;20205;-75
2022/08/27 04:04:13;;;;;;;16.98;14.32;;;20.40;99.90;;;;;;4929082;29;20189;-75
2022/08/27 04:06:39;;;;;;;16.75;13.93;;;20.40;99.90;;;;;;4944959;29;20248;-75
2022/08/27 04:09:04;;;;;;;18.08;14.15;;;20.40;99.90;;;;;;4943813;29;20205;-73
2022/08/27 04:11:33;;;;;;;18.58;13.95;;;20.40;99.90;;;;;;4929123;29;20190;-74
2022/08/27 04:13:59;;;;;;;18.55;13.27;;;20.40;99.90;;;;;;4925241;29;20218;-73
2022/08/27 04:16:29;;;;;;;23.10;17.10;;;20.40;99.90;;;;;;4928871;29;20197;-74
2022/08/27 04:18:59;;;;;;;20.33;16.10;;;20.40;99.90;;;;;;4942805;29;20186;-69
2022/08/27 04:21:25;;;;;;;18.10;14.20;;;20.40;99.90;;;;;;4924957;29;20205;-74
2022/08/27 04:23:55;;;;;;;15.80;12.70;;;20.40;99.90;;;;;;4921124;29;20226;-75
2022/08/27 04:26:21;;;;;;;20.55;13.60;;;20.40;99.90;;;;;;4939790;29;20178;-74
2022/08/27 04:28:49;;;;;;;18.50;13.85;;;20.40;99.90;;;;;;4943240;29;20198;-75
2022/08/27 04:31:15;;;;;;;17.60;13.70;;;20.40;99.90;;;;;;4945331;29;20189;-72
2022/08/27 04:33:44;;;;;;;16.77;14.40;;;20.40;99.90;;;;;;4944605;29;20185;-75
2022/08/27 04:36:16;;;;;;;18.52;14.75;;;20.30;99.90;;;;;;4929428;29;20205;-75
2022/08/27 04:38:47;;;;;;;19.52;13.77;;;20.30;99.90;;;;;;4924069;29;20183;-74
2022/08/27 04:41:22;;;;;;;16.52;13.73;;;20.30;99.90;;;;;;4943527;29;20225;-74
2022/08/27 04:43:51;;;;;;;17.45;13.00;;;20.30;99.90;;;;;;4942831;29;20217;-73
2022/08/27 04:46:29;;;;;;;16.55;13.60;;;20.30;99.90;;;;;;4928994;29;20208;-75
2022/08/27 04:49:00;;;;;;;16.02;12.23;;;20.30;99.90;;;;;;4930021;29;20193;-75
2022/08/27 04:51:27;;;;;;;15.43;12.32;;;20.30;99.90;;;;;;4941364;29;20212;-67
2022/08/27 04:53:53;;;;;;;14.48;11.32;;;20.30;99.90;;;;;;4941334;29;20201;-74
2022/08/27 04:56:21;;;;;;;16.38;12.70;;;20.30;99.90;;;;;;4941348;29;20182;-75
2022/08/27 04:58:47;;;;;;;14.75;11.82;;;20.30;99.90;;;;;;4927079;29;20210;-67
2022/08/27 05:01:24;;;;;;;14.73;11.32;;;20.30;99.90;;;;;;4927879;29;20186;-73
2022/08/27 05:03:52;;;;;;;14.13;11.00;;;20.30;99.90;;;;;;4948907;29;20201;-67
2022/08/27 05:06:21;;;;;;;14.55;10.90;;;20.30;99.90;;;;;;4943121;29;20182;-75
2022/08/27 05:08:48;;;;;;;14.65;10.65;;;20.20;99.90;;;;;;4922195;29;20181;-74
2022/08/27 05:11:17;;;;;;;15.50;12.43;;;20.20;99.90;;;;;;4938800;29;20196;-75
2022/08/27 05:13:44;;;;;;;16.60;12.75;;;20.20;99.90;;;;;;4935435;29;20229;-75
2022/08/27 05:16:18;;;;;;;13.57;10.80;;;20.20;99.90;;;;;;4923259;29;20186;-74
2022/08/27 05:18:48;;;;;;;13.40;10.35;;;20.20;99.90;;;;;;4945146;29;20276;-74
2022/08/27 05:21:30;;;;;;;12.35;10.30;;;20.20;99.90;;;;;;4922311;29;20292;-73
2022/08/27 05:24:02;;;;;;;13.82;10.77;;;20.20;99.90;;;;;;4927735;29;20213;-74
2022/08/27 05:26:29;;;;;;;12.25;10.70;;;20.20;99.90;;;;;;4944948;29;20198;-75
2022/08/27 05:28:57;;;;;;;13.35;10.95;;;20.20;99.90;;;;;;4936696;29;20200;-75
2022/08/27 05:31:22;;;;;;;12.23;10.45;;;20.20;99.90;;;;;;4932855;29;20221;-74
2022/08/27 05:33:50;;;;;;;12.13;10.45;;;20.20;99.90;;;;;;4922930;29;20202;-73
2022/08/27 05:36:22;;;;;;;12.88;10.93;;;20.10;99.90;;;;;;4919005;29;20186;-75
2022/08/27 05:38:50;;;;;;;13.30;10.57;;;20.20;99.90;;;;;;4932391;29;20220;-71
2022/08/27 05:41:23;;;;;;;16.65;11.18;;;20.10;99.90;;;;;;4917531;29;20205;-74
2022/08/27 05:43:56;;;;;;;13.18;10.50;;;20.10;99.90;;;;;;4930401;29;20207;-75
2022/08/27 05:46:25;;;;;;;15.35;12.48;;;20.10;99.90;;;;;;4918134;29;20261;-73
2022/08/27 05:48:57;;;;;;;13.35;10.90;;;20.10;99.90;;;;;;4935181;29;20194;-72
2022/08/27 05:51:32;;;;;;;17.10;11.30;;;20.10;99.90;;;;;;4935160;29;20403;-72
2022/08/27 05:54:10;;;;;;;14.73;10.82;;;20.10;99.90;;;;;;4933899;29;20191;-72
2022/08/27 05:56:37;;;;;;;15.40;11.50;;;20.10;99.90;;;;;;4927688;29;20189;-72
2022/08/27 06:01:54;;;;;;;16.05;11.20;;;20.10;99.90;;;;;;4923036;29;20185;-72
2022/08/27 06:04:21;;;;;;;12.88;10.20;;;20.10;99.90;;;;;;4935760;29;20178;-72
2022/08/27 06:06:48;;;;;;;15.70;11.88;;;20.10;99.90;;;;;;4938125;29;20197;-71
2022/08/27 06:09:24;;;;;;;15.75;12.68;;;20.10;99.90;;;;;;4929232;29;20207;-70
2022/08/27 06:11:51;;;;;;;13.80;11.13;;;20.10;99.90;;;;;;4909694;29;20199;-72
2022/08/27 06:14:17;;;;;;;13.50;10.40;;;20.10;99.90;;;;;;4901764;29;20185;-71
2022/08/27 06:16:43;;;;;;;13.05;9.85;;;20.10;99.90;;;;;;4933745;29;20205;-70
2022/08/27 06:19:11;;;;;;;14.63;10.50;;;20.10;99.90;;;;;;4945521;29;20206;-72
2022/08/27 06:21:36;;;;;;;14.93;12.15;;;20.10;99.90;;;;;;4925767;29;20245;-72
2022/08/27 06:24:02;;;;;;;13.18;11.10;;;20.10;99.90;;;;;;4920955;29;20205;-70
2022/08/27 06:26:28;;;;;;;14.15;11.30;;;20.10;99.90;;;;;;4926160;29;20170;-71
2022/08/27 06:29:02;;;;;;;15.02;11.85;;;20.10;99.90;;;;;;4936859;29;20269;-72
2022/08/27 06:31:28;;;;;;;14.70;10.52;;;20.10;99.90;;;;;;4929589;29;20203;-71
2022/08/27 06:33:58;;;;;;;13.43;10.35;;;20.10;99.90;;;;;;4942040;29;20328;-71
2022/08/27 06:36:25;;;;;;;13.55;10.20;;;20.10;99.90;;;;;;4928679;29;20205;-74
2022/08/27 06:38:50;;;;;;;15.85;10.38;;;20.10;99.90;;;;;;4943832;29;20178;-73
2022/08/27 06:41:21;;;;;;;11.85;9.48;;;20.10;99.90;;;;;;4940025;29;20265;-71
2022/08/27 06:43:47;;;;;;;15.57;10.70;;;20.10;99.90;;;;;;4942905;29;20208;-72
2022/08/27 06:46:17;;;;;;;13.55;9.40;;;20.10;99.90;;;;;;4929821;29;20229;-72
2022/08/27 06:48:43;;;;;;;10.77;9.55;;;20.10;99.90;;;;;;4922006;29;20201;-71
2022/08/27 06:51:18;;;;;;;16.58;9.30;;;20.10;99.90;;;;;;4938259;29;20217;-72
2022/08/27 06:53:47;;;;;;;9.98;8.18;;;20.10;99.90;;;;;;4939104;29;20268;-71
2022/08/27 06:56:14;;;;;;;14.07;9.85;;;20.10;99.90;;;;;;4937221;29;20289;-72
2022/08/27 06:58:41;;;;;;;13.25;9.55;;;20.00;99.90;;;;;;4935529;29;20205;-71
2022/08/27 07:01:41;;;;;;;13.65;8.73;;;20.10;99.90;;;;;;4939012;29;20177;-72
2022/08/27 07:04:10;;;;;;;10.65;8.07;;;20.00;99.90;;;;;;4922609;29;20244;-73
2022/08/27 07:06:37;;;;;;;11.75;8.77;;;20.00;99.90;;;;;;4934570;29;20201;-71
2022/08/27 07:09:03;;;;;;;12.82;9.23;;;20.00;99.90;;;;;;4921081;29;20170;-72
2022/08/27 07:11:31;;;;;;;9.55;8.15;;;20.00;99.90;;;;;;4936396;29;20182;-71
2022/08/27 07:13:57;;;;;;;10.77;7.15;;;20.00;99.90;;;;;;4935427;29;20221;-73
2022/08/27 07:16:24;;;;;;;9.43;7.20;;;19.90;99.90;;;;;;4935328;29;20200;-72
2022/08/27 07:18:56;;;;;;;7.82;6.82;;;19.90;99.90;;;;;;4920001;29;20203;-72
2022/08/27 07:21:25;;;;;;;7.78;6.63;;;19.90;99.90;;;;;;4916855;29;20218;-71
2022/08/27 07:23:53;;;;;;;8.68;6.95;;;19.90;99.90;;;;;;4935360;29;20206;-71
2022/08/27 07:26:21;;;;;;;7.60;6.57;;;19.90;99.90;;;;;;4937051;29;20367;-72
2022/08/27 07:28:52;;;;;;;8.90;7.10;;;19.80;99.90;;;;;;4925361;29;20189;-71
2022/08/27 07:31:21;;;;;;;9.43;7.32;;;19.80;99.90;;;;;;4933137;29;20207;-71
2022/08/27 07:33:47;;;;;;;9.48;6.72;;;19.80;99.90;;;;;;4939839;29;20228;-71
2022/08/27 07:36:13;;;;;;;10.30;8.35;;;19.80;99.90;;;;;;4919392;29;20182;-72
2022/08/27 07:38:39;;;;;;;9.60;8.57;;;19.80;99.90;;;;;;4928128;29;20281;-74
2022/08/27 07:41:07;;;;;;;9.73;7.57;;;19.70;99.90;;;;;;4934799;29;20186;-72
2022/08/27 07:46:21;;;;;;;9.23;7.82;;;19.70;99.90;;;;;;4930411;29;20212;-69
2022/08/27 07:48:47;;;;;;;9.48;7.55;;;19.80;99.90;;;;;;4940091;29;20178;-71
2022/08/27 07:51:19;;;;;;;7.65;6.85;;;19.70;99.90;;;;;;4922218;29;20197;-72
2022/08/27 07:53:48;;;;;;;7.18;6.18;;;19.80;99.90;;;;;;4935964;29;20178;-72
2022/08/27 07:56:14;;;;;;;7.47;6.78;;;19.80;99.90;;;;;;4935755;29;20332;-70
2022/08/27 07:58:40;;;;;;;7.70;6.95;;;19.80;99.90;;;;;;4950169;29;20193;-72
2022/08/27 08:01:06;;;;;;;9.00;8.10;;;19.80;99.90;;;;;;4938476;29;20190;-72
2022/08/27 08:03:33;;;;;;;8.45;7.43;;;19.90;99.90;;;;;;4926138;29;20202;-73
2022/08/27 08:06:04;;;;;;;8.07;7.28;;;19.90;99.90;;;;;;4923290;29;20178;-72
2022/08/27 08:08:32;;;;;;;9.50;8.18;;;19.90;99.90;;;;;;4927716;29;20173;-72
2022/08/27 08:10:57;;;;;;;10.23;9.05;;;19.90;99.90;;;;;;4960571;29;20208;-72
2022/08/27 08:13:23;;;;;;;8.35;7.45;;;19.90;99.90;;;;;;4959788;29;20193;-72
2022/08/27 08:15:51;;;;;;;8.20;7.40;;;19.90;99.90;;;;;;4948200;29;20257;-72
2022/08/27 08:18:16;;;;;;;7.35;6.65;;;20.00;99.90;;;;;;4929714;29;20210;-72
2022/08/27 08:20:46;;;;;;;9.05;7.93;;;20.00;99.90;;;;;;4939223;29;20221;-72
2022/08/27 08:23:12;;;;;;;9.57;8.68;;;20.00;99.90;;;;;;4939062;29;20241;-72
2022/08/27 08:25:37;;;;;;;8.68;7.80;;;20.00;99.90;;;;;;4940949;29;20177;-72
2022/08/27 08:28:05;;;;;;;9.95;8.45;;;20.00;99.90;;;;;;4941225;29;20178;-69
2022/08/27 08:30:32;;;;;;;8.73;6.88;;;20.00;99.90;;;;;;4924473;29;20209;-72
2022/08/27 08:33:00;;;;;;;8.45;7.57;;;20.00;99.90;;;;;;4937780;29;20182;-72
2022/08/27 08:35:25;;;;;;;7.50;6.78;;;20.00;99.90;;;;;;4938366;29;20178;-72
2022/08/27 08:37:51;;;;;;;7.88;7.07;;;19.90;99.90;;;;;;4937616;29;20174;-71
2022/08/27 08:40:32;;;;;;;7.78;6.90;;;20.00;99.90;;;;;;4952029;29;20185;-72
2022/08/27 08:43:00;;;;;;;7.65;6.93;;;20.00;99.90;;;;;;4940450;29;20230;-72
2022/08/27 08:45:35;;;;;;;8.20;6.90;;;19.90;99.90;;;;;;4926444;29;20209;-72
2022/08/27 08:48:23;;;;;;;7.97;7.18;;;19.90;99.90;;;;;;4937385;29;20177;-72
2022/08/27 08:51:05;;;;;;;6.90;6.18;;;19.90;99.90;;;;;;4952372;29;20157;-72
2022/08/27 08:53:52;;;;;;;7.05;6.38;;;20.00;99.90;;;;;;4941751;29;20248;-72
2022/08/27 08:56:27;;;;;;;8.35;5.97;;;20.00;99.90;;;;;;4931295;29;20213;-72
2022/08/27 08:59:13;;;;;;;6.47;5.72;;;20.00;99.90;;;;;;4941888;29;20202;-73
2022/08/27 09:01:43;;;;;;;5.43;4.93;;;20.00;99.90;;;;;;4921477;29;20260;-72
2022/08/27 09:04:10;;;;;;;5.97;5.28;;;20.00;99.90;;;;;;4925745;29;20265;-71
2022/08/27 09:07:08;;;;;;;5.25;4.75;;;20.00;99.90;;;;;;4923033;29;20189;-71
2022/08/27 09:09:50;;;;;;;6.60;6.00;;;20.00;99.90;;;;;;4912604;29;20208;-72
2022/08/27 09:12:23;;;;;;;7.65;5.70;;;20.10;99.90;;;;;;4921014;29;20170;-72
2022/08/27 09:14:53;;;;;;;7.22;6.53;;;20.10;99.90;;;;;;4937972;29;20292;-72
2022/08/27 09:17:22;;;;;;;9.18;6.85;;;20.10;99.90;;;;;;4924937;29;20186;-72
2022/08/27 09:19:50;;;;;;;7.68;6.88;;;20.10;99.90;;;;;;4936948;29;20248;-73
2022/08/27 09:22:45;;;;;;;6.35;5.85;;;20.10;99.90;;;;;;4938215;29;20193;-71
2022/08/27 09:25:26;;;;;;;5.65;5.13;;;20.10;99.90;;;;;;4942237;29;20229;-72
2022/08/27 09:28:02;;;;;;;5.35;4.85;;;20.10;99.90;;;;;;4939415;29;20272;-72
2022/08/27 09:30:39;;;;;;;6.22;5.28;;;20.20;99.90;;;;;;4936501;29;20188;-72
2022/08/27 09:33:05;;;;;;;4.85;4.35;;;20.10;99.90;;;;;;4936766;29;20248;-80
2022/08/27 09:35:43;;;;;;;5.47;4.93;;;20.10;99.90;;;;;;4944999;29;20190;-77
2022/08/27 09:38:12;;;;;;;5.15;4.75;;;20.10;99.90;;;;;;4947330;29;20170;-77
2022/08/27 09:40:45;;;;;;;6.78;4.70;;;20.10;99.90;;;;;;4929849;29;20202;-77
2022/08/27 09:43:35;;;;;;;5.00;4.50;;;20.20;99.90;;;;;;4943736;29;20210;-77
2022/08/27 09:46:21;;;;;;;5.93;3.92;;;20.20;99.90;;;;;;4931230;29;20185;-77
2022/08/27 09:48:47;;;;;;;4.30;3.90;;;20.20;99.90;;;;;;4933382;29;20528;-77
2022/08/27 09:51:20;;;;;;;4.63;3.90;;;20.30;99.90;;;;;;4936245;29;20198;-77
2022/08/27 09:53:51;;;;;;;3.83;3.45;;;20.30;99.90;;;;;;4932795;29;20202;-77
2022/08/27 09:56:38;;;;;;;5.03;4.07;;;20.30;99.90;;;;;;4929667;29;20197;-77
2022/08/27 09:59:12;;;;;;;5.07;4.57;;;20.40;99.90;;;;;;4944577;29;20229;-77
2022/08/27 10:02:16;;;;;;;4.57;4.13;;;20.40;99.90;;;;;;4929862;29;20216;-79
2022/08/27 10:04:43;;;;;;;5.38;4.75;;;20.40;99.90;;;;;;4941889;29;20217;-77
2022/08/27 10:07:42;;;;;;;5.78;5.22;;;20.40;99.90;;;;;;4933449;29;20209;-74
2022/08/27 10:10:31;;;;;;;6.97;6.30;;;20.40;99.90;;;;;;4877281;29;20186;-76
2022/08/27 10:13:17;;;;;;;7.97;6.85;;;20.40;99.90;;;;;;4952667;29;20182;-76
2022/08/27 10:16:08;;;;;;;8.05;7.18;;;20.40;99.90;;;;;;4929958;29;20238;-73
2022/08/27 10:18:40;;;;;;;9.55;8.55;;;20.30;99.90;;;;;;4944262;29;20178;-75
2022/08/27 10:21:44;;;;;;;11.15;9.63;;;20.30;99.90;;;;;;4951870;29;20269;-77
2022/08/27 10:24:15;;;;;;;10.88;9.88;;;20.20;99.90;;;;;;4914760;29;20240;-75
2022/08/27 10:27:22;;;;;;;9.65;8.75;;;20.20;99.90;;;;;;4935427;29;20190;-75
2022/08/27 10:30:04;;;;;;;11.00;9.90;;;20.10;99.90;;;;;;4910379;29;20205;-78
2022/08/27 10:32:38;;;;;;;11.82;10.63;;;20.10;99.90;;;;;;4943320;29;20210;-78
2022/08/27 10:35:06;;;;;;;10.35;9.32;;;20.00;99.90;;;;;;4935427;29;20173;-78
2022/08/27 10:37:35;;;;;;;10.80;9.70;;;20.00;99.90;;;;;;4948222;29;20166;-76
2022/08/27 10:40:23;;;;;;;10.52;9.63;;;20.00;99.90;;;;;;4930228;29;20201;-78
2022/08/27 10:43:01;;;;;;;12.32;11.10;;;20.00;99.90;;;;;;4948088;29;20270;-79
2022/08/27 10:45:45;;;;;;;9.95;8.98;;;20.00;99.90;;;;;;4928479;29;20178;-79
2022/08/27 10:48:34;;;;;;;10.48;9.45;;;20.00;99.90;;;;;;4924898;29;20207;-77
2022/08/27 10:51:22;;;;;;;10.85;9.75;;;20.00;99.90;;;;;;4932128;29;20182;-78
2022/08/27 10:53:58;;;;;;;9.43;8.52;;;20.00;99.90;;;;;;4932939;29;20206;-78
2022/08/27 10:56:39;;;;;;;10.00;9.05;;;20.10;99.90;;;;;;4943890;29;20190;-75
2022/08/27 10:59:16;;;;;;;10.50;9.35;;;20.10;99.90;;;;;;4952571;29;20201;-79
2022/08/27 11:02:01;;;;;;;9.80;8.90;;;20.20;99.90;;;;;;4938159;29;20217;-79
2022/08/27 11:04:48;;;;;;;11.55;10.35;;;20.30;99.90;;;;;;4927297;29;20236;-79
2022/08/27 11:07:24;;;;;;;10.48;9.48;;;20.40;99.90;;;;;;4945119;29;20198;-76
2022/08/27 11:10:04;;;;;;;9.65;8.55;;;20.50;99.90;;;;;;4942450;29;20254;-79
2022/08/27 11:12:41;;;;;;;9.48;8.57;;;20.60;99.90;;;;;;4937177;29;20209;-76
2022/08/27 11:15:25;;;;;;;9.23;8.32;;;20.60;99.90;;;;;;4945166;29;20229;-79
2022/08/27 11:18:16;;;;;;;9.07;8.18;;;20.70;99.90;;;;;;4929032;29;20182;-78
2022/08/27 11:21:00;;;;;;;9.35;7.25;;;20.70;99.90;;;;;;4930629;29;20214;-77
2022/08/27 11:23:32;;;;;;;8.25;7.45;;;20.80;99.90;;;;;;4948937;29;20206;-77
2022/08/27 11:26:02;;;;;;;8.85;7.85;;;20.90;99.90;;;;;;4913900;29;20190;-76
2022/08/27 11:28:57;;;;;;;7.93;7.13;;;21.00;99.90;;;;;;4946189;29;20197;-78
2022/08/27 11:31:49;;;;;;;7.97;7.28;;;21.10;99.90;;;;;;4945061;29;20202;-76
2022/08/27 11:34:38;;;;;;;8.23;7.03;;;21.20;99.90;;;;;;4945161;29;20181;-79
2022/08/27 11:37:04;;;;;;;8.60;7.80;;;21.20;99.90;;;;;;4932418;29;20221;-76
2022/08/27 11:40:06;;;;;;;9.85;7.15;;;21.30;99.90;;;;;;4934044;29;20273;-78
2022/08/27 11:42:41;;;;;;;8.10;6.22;;;21.40;99.90;;;;;;4956461;29;20238;-78
2022/08/27 11:45:14;;;;;;;10.27;7.38;;;21.50;99.90;;;;;;4934092;29;20190;-80
2022/08/27 11:47:51;;;;;;;8.02;6.35;;;21.60;99.90;;;;;;4949203;29;20210;-79
2022/08/27 11:50:19;;;;;;;6.93;6.22;;;21.70;99.90;;;;;;4961572;29;20241;-78
2022/08/27 11:53:00;;;;;;;6.82;6.10;;;21.70;99.90;;;;;;4932203;29;20234;-79
2022/08/27 11:55:35;;;;;;;6.53;5.53;;;21.70;99.90;;;;;;4950492;29;20193;-74
2022/08/27 11:58:16;;;;;;;8.73;6.40;;;21.70;99.90;;;;;;4949777;29;20237;-77
2022/08/27 12:00:44;;;;;;;7.07;5.70;;;21.70;99.90;;;;;;4931073;29;20209;-79
2022/08/27 12:03:36;;;;;;;7.47;5.70;;;21.70;99.90;;;;;;4947722;29;20397;-80
2022/08/27 12:06:24;;;;;;;6.45;5.75;;;21.70;99.90;;;;;;4947525;29;20285;-77
2022/08/27 12:08:51;;;;;;;7.40;6.60;;;21.70;99.90;;;;;;4949661;29;20194;-77
2022/08/27 12:11:22;;;;;;;7.03;6.20;;;21.60;99.90;;;;;;4932265;29;20210;-77
2022/08/27 12:14:04;;;;;;;7.13;6.15;;;21.60;99.90;;;;;;4932548;29;20221;-80
2022/08/27 12:16:56;;;;;;;7.38;5.63;;;21.60;99.90;;;;;;4947009;29;20284;-78
2022/08/27 12:19:32;;;;;;;8.45;5.60;;;21.60;99.90;;;;;;4930967;29;20205;-75
2022/08/27 12:23:38;;;;;;;6.25;4.80;;;21.60;99.90;;;;;;4945709;29;20361;-76
2022/08/27 12:25:22;;;;;;;5.03;4.38;;;21.70;99.90;;;;;;4929157;29;20210;-79
2022/08/27 12:27:56;;;;;;;4.95;4.10;;;21.70;99.90;;;;;;4936668;29;20178;-79
2022/08/27 12:30:43;;;;;;;5.38;4.50;;;21.70;99.90;;;;;;4948773;29;20192;-79
2022/08/27 12:33:45;;;;;;;8.68;5.28;;;21.80;99.90;;;;;;4949281;29;20170;-77
2022/08/27 12:36:32;;;;;;;7.82;6.20;;;21.90;99.90;;;;;;4949384;29;20181;-78
2022/08/27 12:38:58;;;;;;;7.88;5.10;;;22.00;99.90;;;;;;4954580;29;20248;-78
2022/08/27 12:41:37;;;;;;;4.82;4.30;;;22.00;99.90;;;;;;4931068;29;20274;-77
2022/08/27 12:44:08;;;;;;;5.10;4.20;;;22.10;99.90;;;;;;4930635;29;20206;-80
2022/08/27 12:46:56;;;;;;;4.95;3.88;;;22.10;99.90;;;;;;4940117;29;20174;-79
2022/08/27 12:49:26;;;;;;;4.07;3.67;;;22.20;99.90;;;;;;4949859;29;20194;-78
2022/08/27 12:51:55;;;;;;;5.43;3.95;;;22.20;99.90;;;;;;4948918;29;20194;-75
2022/08/27 12:54:42;;;;;;;4.85;3.72;;;22.30;99.90;;;;;;4949352;29;20182;-71
2022/08/27 12:57:16;;;;;;;5.20;4.15;;;22.30;99.90;;;;;;4944321;29;20241;-80
2022/08/27 13:00:03;;;;;;;6.93;4.53;;;22.30;99.90;;;;;;4948129;29;20192;-79
2022/08/27 13:02:57;;;;;;;6.00;4.05;;;22.30;99.90;;;;;;4938474;29;20202;-80
2022/08/27 13:05:26;;;;;;;4.53;3.83;;;22.30;99.90;;;;;;4924675;29;20186;-79
2022/08/27 13:07:52;;;;;;;5.35;3.90;;;22.20;99.90;;;;;;4947755;29;20174;-78
2022/08/27 13:10:30;;;;;;;9.00;4.15;;;22.20;99.90;;;;;;4947661;29;20271;-82
2022/08/27 13:13:07;;;;;;;4.15;3.55;;;22.20;99.90;;;;;;4952051;29;20201;-79
2022/08/27 13:15:33;;;;;;;6.35;4.25;;;22.20;99.90;;;;;;4932781;29;20201;-79